This is the latest recevied weather packets stored in our database for station/object R1ZAAG-14. If no packets are shown the sender has not sent any weather packets the latest 1 day(s).
| Time | Temp. | Humidity | Pressure | Rain* | Wind** | Luminosity | Snow |
|---|---|---|---|---|---|---|---|
| 1778053290 | 2.78° C | 72% | 1004.3 hPa | - | - | - | - |
| 1778052389 | 2.22° C | 80% | 1004.2 hPa | - | - | - | - |
| 1778052384 | 2.22° C | 80% | 1004.2 hPa | - | - | - | - |
| 1778051483 | 2.78° C | 85% | 1004.1 hPa | - | - | - | - |
| 1778050588 | 3.33° C | 86% | 1003.9 hPa | - | - | - | - |
| 1778049687 | 2.78° C | 100% | 1003.8 hPa | - | - | - | - |
| 1778048788 | 2.78° C | 100% | 1003.7 hPa | - | - | - | - |
| 1778048782 | 2.78° C | 100% | 1003.7 hPa | - | - | - | - |
| 1778047881 | 2.78° C | 100% | 1003.6 hPa | - | - | - | - |
| 1778046980 | 2.22° C | 100% | 1003.5 hPa | - | - | - | - |
| 1778046083 | 2.22° C | 100% | 1003.3 hPa | - | - | - | - |
| 1778046078 | 2.22° C | 100% | 1003.3 hPa | - | - | - | - |
| 1778045178 | 1.67° C | 100% | 1003.3 hPa | - | - | - | - |
| 1778044281 | 0.56° C | 100% | 1003.4 hPa | - | - | - | - |
| 1778044274 | 0.56° C | 100% | 1003.4 hPa | - | - | - | - |
| 1778043380 | 1.67° C | 86% | 1003 hPa | - | - | - | - |
| 1778042482 | 2.78° C | 68% | 1002.7 hPa | - | - | - | - |
| 1778042472 | 2.78° C | 68% | 1002.7 hPa | - | - | - | - |
| 1778041584 | 2.78° C | 66% | 1002.5 hPa | - | - | - | - |
| 1778040683 | 2.22° C | 77% | 1002.5 hPa | - | - | - | - |
| 1778038882 | 2.22° C | 75% | 1002.2 hPa | - | - | - | - |
| 1778037982 | 1.67° C | 76% | 1002.1 hPa | - | - | - | - |
| 1778037081 | 1.67° C | 79% | 1002 hPa | - | - | - | - |
| 1778036181 | 1.67° C | 80% | 1001.9 hPa | - | - | - | - |
| 1778034380 | 1.11° C | 80% | 1001.5 hPa | - | - | - | - |
* Rain since midnight (hover to see other rain measurements)
** Current wind speed in m/s (hover to see current wind gust speed)